EZY50A LPPT-EGKK
Flight info
| Callsign | EZY50A |
|---|---|
| Flight time | 2h 4m |
| Altitude | 34000 |
| Route | IXIDA DCT RIVRO DCT TOSDI N745 ZMR N873 RONSI/N0455F360 N873 DELOG DCT ERCOZ DCT BADUR DCT FEJAC DCT JSY/N0455F340 DCT REVTU UP88 VASUX |
| Aircraft | A320/M-SDE3FGHIRWY/LB1 |
Departure
| Time | 2026-05-07 19:28 |
|---|---|
| Airport | Lisbon Humberto Delgado Airport (LPPT) |
Arrival
| Time | 2026-05-07 21:32 |
|---|---|
| Airport | London Gatwick Airport (EGKK) |
| Time | Latitude | Longitude | Altitude | Speed | Heading |
|---|---|---|---|---|---|
| 2026-05-07 18:42 | 38.76935 | -9.13081 | 352 ft | 0 kts | 78° |
| 2026-05-07 19:10 | 38.76930 | -9.13108 | 356 ft | 4 kts | 69° |
| 2026-05-07 19:10 | 38.76917 | -9.13136 | 355 ft | 4 kts | 36° |
| 2026-05-07 19:11 | 38.76900 | -9.13144 | 355 ft | 0 kts | 348° |
| 2026-05-07 19:16 | 38.76920 | -9.13149 | 353 ft | 5 kts | 348° |
| 2026-05-07 19:16 | 38.76952 | -9.13158 | 351 ft | 4 kts | 348° |
| 2026-05-07 19:16 | 38.76987 | -9.13168 | 347 ft | 8 kts | 347° |
| 2026-05-07 19:16 | 38.77050 | -9.13185 | 347 ft | 10 kts | 349° |
| 2026-05-07 19:17 | 38.77123 | -9.13205 | 347 ft | 11 kts | 348° |
| 2026-05-07 19:17 | 38.77174 | -9.13219 | 347 ft | 3 kts | 348° |
| 2026-05-07 19:17 | 38.77212 | -9.13229 | 356 ft | 8 kts | 348° |
| 2026-05-07 19:17 | 38.77247 | -9.13238 | 349 ft | 0 kts | 349° |
| 2026-05-07 19:18 | 38.77274 | -9.13245 | 347 ft | 7 kts | 349° |
| 2026-05-07 19:18 | 38.77327 | -9.13281 | 354 ft | 12 kts | 302° |
| 2026-05-07 19:18 | 38.77316 | -9.13382 | 351 ft | 12 kts | 258° |
| 2026-05-07 19:19 | 38.77298 | -9.13488 | 347 ft | 12 kts | 258° |
| 2026-05-07 19:19 | 38.77280 | -9.13602 | 347 ft | 14 kts | 258° |
| 2026-05-07 19:19 | 38.77260 | -9.13725 | 355 ft | 15 kts | 258° |
| 2026-05-07 19:19 | 38.77225 | -9.13848 | 351 ft | 15 kts | 218° |
| 2026-05-07 19:20 | 38.77126 | -9.13902 | 351 ft | 15 kts | 203° |
| 2026-05-07 19:20 | 38.77010 | -9.13963 | 354 ft | 20 kts | 201° |
| 2026-05-07 19:20 | 38.76878 | -9.14033 | 350 ft | 21 kts | 202° |
| 2026-05-07 19:20 | 38.76769 | -9.14091 | 350 ft | 15 kts | 202° |
| 2026-05-07 19:21 | 38.76687 | -9.14135 | 348 ft | 5 kts | 202° |
| 2026-05-07 19:21 | 38.76686 | -9.14136 | 345 ft | 0 kts | 202° |
| 2026-05-07 19:22 | 38.76667 | -9.14146 | 351 ft | 5 kts | 202° |
| 2026-05-07 19:22 | 38.76646 | -9.14157 | 347 ft | 2 kts | 202° |
| 2026-05-07 19:22 | 38.76643 | -9.14159 | 353 ft | 0 kts | 202° |
| 2026-05-07 19:23 | 38.76636 | -9.14162 | 345 ft | 3 kts | 203° |
| 2026-05-07 19:23 | 38.76620 | -9.14171 | 354 ft | 2 kts | 203° |
| 2026-05-07 19:23 | 38.76594 | -9.14192 | 351 ft | 5 kts | 229° |
| 2026-05-07 19:23 | 38.76590 | -9.14204 | 350 ft | 0 kts | 251° |
| 2026-05-07 19:25 | 38.76594 | -9.14236 | 348 ft | 7 kts | 291° |
| 2026-05-07 19:25 | 38.76604 | -9.14266 | 347 ft | 0 kts | 291° |
| 2026-05-07 19:26 | 38.76604 | -9.14267 | 347 ft | 1 kts | 291° |
| 2026-05-07 19:26 | 38.76620 | -9.14316 | 336 ft | 11 kts | 295° |
| 2026-05-07 19:26 | 38.76653 | -9.14386 | 336 ft | 5 kts | 332° |
| 2026-05-07 19:26 | 38.76660 | -9.14382 | 337 ft | 0 kts | 20° |
| 2026-05-07 19:27 | 38.76793 | -9.14314 | 340 ft | 55 kts | 22° |
| 2026-05-07 19:27 | 38.77349 | -9.14014 | 350 ft | 116 kts | 22° |
| 2026-05-07 19:27 | 38.78254 | -9.13528 | 350 ft | 164 kts | 22° |
| 2026-05-07 19:28 | 38.79358 | -9.12949 | 767 ft | 172 kts | 20° |
| 2026-05-07 19:28 | 38.80468 | -9.12320 | 1417 ft | 174 kts | 18° |
| 2026-05-07 19:28 | 38.81605 | -9.11674 | 1896 ft | 188 kts | 25° |
| 2026-05-07 19:28 | 38.82801 | -9.10773 | 2179 ft | 211 kts | 28° |
| 2026-05-07 19:29 | 38.84134 | -9.09753 | 2508 ft | 235 kts | 27° |
| 2026-05-07 19:29 | 38.85602 | -9.08621 | 2934 ft | 255 kts | 28° |
| 2026-05-07 19:29 | 38.87145 | -9.07422 | 3642 ft | 263 kts | 28° |
| 2026-05-07 19:29 | 38.88728 | -9.06189 | 4411 ft | 269 kts | 30° |
| 2026-05-07 19:30 | 38.90257 | -9.04746 | 5138 ft | 278 kts | 42° |
| 2026-05-07 19:30 | 38.91699 | -9.03054 | 5889 ft | 284 kts | 43° |
| 2026-05-07 19:30 | 38.93179 | -9.01327 | 6617 ft | 291 kts | 43° |
| 2026-05-07 19:30 | 38.94688 | -8.99570 | 7389 ft | 294 kts | 44° |
| 2026-05-07 19:31 | 38.96212 | -8.97795 | 8173 ft | 297 kts | 44° |
| 2026-05-07 19:31 | 38.97756 | -8.95997 | 8950 ft | 300 kts | 44° |
| 2026-05-07 19:31 | 38.99311 | -8.94180 | 9747 ft | 303 kts | 45° |
| 2026-05-07 19:31 | 39.00895 | -8.92324 | 10242 ft | 317 kts | 45° |
| 2026-05-07 19:32 | 39.02582 | -8.90345 | 10424 ft | 340 kts | 44° |
| 2026-05-07 19:32 | 39.04391 | -8.88223 | 10565 ft | 363 kts | 44° |
| 2026-05-07 19:32 | 39.06313 | -8.85972 | 10738 ft | 382 kts | 44° |
| 2026-05-07 19:32 | 39.07964 | -8.83291 | 10960 ft | 392 kts | 61° |
| 2026-05-07 19:33 | 39.09676 | -8.80538 | 11644 ft | 396 kts | 46° |
| 2026-05-07 19:33 | 39.11731 | -8.78231 | 12341 ft | 399 kts | 40° |
| 2026-05-07 19:33 | 39.13967 | -8.76085 | 12984 ft | 402 kts | 38° |
| 2026-05-07 19:33 | 39.16230 | -8.73936 | 13589 ft | 406 kts | 40° |
| 2026-05-07 19:34 | 39.18322 | -8.71489 | 14107 ft | 408 kts | 46° |
| 2026-05-07 19:34 | 39.20298 | -8.68843 | 14626 ft | 411 kts | 49° |
| 2026-05-07 19:34 | 39.22203 | -8.66083 | 15144 ft | 414 kts | 51° |
| 2026-05-07 19:34 | 39.24082 | -8.63248 | 15651 ft | 416 kts | 52° |
| 2026-05-07 19:35 | 39.25959 | -8.60380 | 16150 ft | 420 kts | 52° |
| 2026-05-07 19:35 | 39.27855 | -8.57500 | 16676 ft | 422 kts | 51° |
| 2026-05-07 19:35 | 39.29775 | -8.54623 | 17188 ft | 425 kts | 51° |
| 2026-05-07 19:35 | 39.31725 | -8.51740 | 17670 ft | 428 kts | 51° |
| 2026-05-07 19:36 | 39.33702 | -8.48838 | 18123 ft | 431 kts | 51° |
| 2026-05-07 19:36 | 39.35693 | -8.45922 | 18528 ft | 434 kts | 50° |
| 2026-05-07 19:36 | 39.37699 | -8.42984 | 18916 ft | 438 kts | 50° |
| 2026-05-07 19:36 | 39.39719 | -8.40016 | 19288 ft | 441 kts | 50° |
| 2026-05-07 19:37 | 39.41752 | -8.37018 | 19660 ft | 445 kts | 50° |
| 2026-05-07 19:37 | 39.43794 | -8.33997 | 20009 ft | 449 kts | 50° |
| 2026-05-07 19:37 | 39.45853 | -8.30949 | 20392 ft | 451 kts | 50° |
| 2026-05-07 19:37 | 39.47929 | -8.27872 | 20751 ft | 455 kts | 50° |
| 2026-05-07 19:38 | 39.50016 | -8.24768 | 21108 ft | 459 kts | 50° |
| 2026-05-07 19:38 | 39.52119 | -8.21638 | 21452 ft | 462 kts | 49° |
| 2026-05-07 19:38 | 39.54240 | -8.18481 | 21771 ft | 466 kts | 49° |
| 2026-05-07 19:38 | 39.56376 | -8.15304 | 22104 ft | 470 kts | 49° |
| 2026-05-07 19:39 | 39.58532 | -8.12099 | 22422 ft | 473 kts | 49° |
| 2026-05-07 19:39 | 39.60700 | -8.08873 | 22736 ft | 476 kts | 49° |
| 2026-05-07 19:39 | 39.62850 | -8.05667 | 23038 ft | 480 kts | 49° |
| 2026-05-07 19:39 | 39.65046 | -8.02386 | 23346 ft | 483 kts | 49° |
| 2026-05-07 19:40 | 39.67296 | -7.99128 | 23638 ft | 486 kts | 47° |
| 2026-05-07 19:40 | 39.69672 | -7.95912 | 23928 ft | 488 kts | 45° |
| 2026-05-07 19:40 | 39.72051 | -7.92839 | 24221 ft | 490 kts | 44° |
| 2026-05-07 19:40 | 39.74497 | -7.89738 | 24506 ft | 492 kts | 44° |
| 2026-05-07 19:41 | 39.76946 | -7.86631 | 24775 ft | 493 kts | 44° |
| 2026-05-07 19:41 | 39.79397 | -7.83481 | 25038 ft | 495 kts | 44° |
| 2026-05-07 19:41 | 39.81831 | -7.80303 | 25298 ft | 497 kts | 45° |
| 2026-05-07 19:41 | 39.84260 | -7.77092 | 25561 ft | 499 kts | 45° |
| 2026-05-07 19:42 | 39.86694 | -7.73860 | 25825 ft | 500 kts | 45° |
| 2026-05-07 19:42 | 39.89131 | -7.70619 | 26073 ft | 502 kts | 45° |
| 2026-05-07 19:42 | 39.91584 | -7.67358 | 26332 ft | 504 kts | 45° |
| 2026-05-07 19:42 | 39.94040 | -7.64100 | 26586 ft | 505 kts | 45° |
| 2026-05-07 19:43 | 39.96507 | -7.60825 | 26908 ft | 505 kts | 45° |
| 2026-05-07 19:43 | 39.98966 | -7.57561 | 27276 ft | 503 kts | 44° |
| 2026-05-07 19:43 | 40.01414 | -7.54316 | 27677 ft | 501 kts | 44° |
| 2026-05-07 19:43 | 40.03850 | -7.51084 | 28113 ft | 498 kts | 44° |
| 2026-05-07 19:44 | 40.06276 | -7.47861 | 28509 ft | 497 kts | 44° |
| 2026-05-07 19:44 | 40.08695 | -7.44637 | 28882 ft | 496 kts | 44° |
| 2026-05-07 19:44 | 40.11105 | -7.41421 | 29232 ft | 495 kts | 44° |
| 2026-05-07 19:44 | 40.13516 | -7.38205 | 29597 ft | 494 kts | 44° |
| 2026-05-07 19:45 | 40.15921 | -7.34991 | 29961 ft | 494 kts | 44° |
| 2026-05-07 19:45 | 40.18317 | -7.31783 | 30273 ft | 493 kts | 44° |
| 2026-05-07 19:45 | 40.20713 | -7.28570 | 30532 ft | 493 kts | 44° |
| 2026-05-07 19:45 | 40.23074 | -7.25398 | 30791 ft | 493 kts | 44° |
| 2026-05-07 19:46 | 40.25464 | -7.22179 | 31077 ft | 493 kts | 44° |
| 2026-05-07 19:46 | 40.27859 | -7.18953 | 31338 ft | 494 kts | 43° |
| 2026-05-07 19:46 | 40.30252 | -7.15731 | 31626 ft | 494 kts | 43° |
| 2026-05-07 19:46 | 40.32651 | -7.12498 | 31900 ft | 494 kts | 43° |
| 2026-05-07 19:47 | 40.35043 | -7.09275 | 32183 ft | 493 kts | 43° |
| 2026-05-07 19:47 | 40.37433 | -7.06053 | 32468 ft | 493 kts | 43° |
| 2026-05-07 19:47 | 40.39820 | -7.02825 | 32749 ft | 493 kts | 43° |
| 2026-05-07 19:47 | 40.42203 | -6.99598 | 33036 ft | 492 kts | 43° |
| 2026-05-07 19:48 | 40.44586 | -6.96365 | 33310 ft | 492 kts | 43° |
| 2026-05-07 19:48 | 40.46962 | -6.93139 | 33586 ft | 492 kts | 42° |
| 2026-05-07 19:48 | 40.49343 | -6.89906 | 33871 ft | 492 kts | 42° |
| 2026-05-07 19:48 | 40.51720 | -6.86679 | 34102 ft | 492 kts | 42° |
| 2026-05-07 19:49 | 40.54102 | -6.83443 | 34314 ft | 492 kts | 42° |
| 2026-05-07 19:49 | 40.56478 | -6.80211 | 34551 ft | 492 kts | 42° |
| 2026-05-07 19:49 | 40.58054 | -6.78063 | 34695 ft | 492 kts | 42° |
| 2026-05-07 19:49 | 40.60433 | -6.74812 | 34855 ft | 493 kts | 42° |
| 2026-05-07 19:50 | 40.65308 | -6.68422 | 34896 ft | 495 kts | 38° |
| 2026-05-07 19:50 | 40.70462 | -6.62434 | 34896 ft | 494 kts | 36° |
| 2026-05-07 19:51 | 40.75684 | -6.56545 | 34896 ft | 494 kts | 37° |
| 2026-05-07 19:51 | 40.80845 | -6.50552 | 34894 ft | 494 kts | 37° |
| 2026-05-07 19:52 | 40.85925 | -6.44515 | 34895 ft | 494 kts | 37° |
| 2026-05-07 19:52 | 40.91025 | -6.38424 | 34907 ft | 494 kts | 37° |
| 2026-05-07 19:53 | 40.96126 | -6.32363 | 34924 ft | 493 kts | 37° |
| 2026-05-07 19:53 | 41.01234 | -6.26314 | 34922 ft | 492 kts | 37° |
| 2026-05-07 19:54 | 41.06327 | -6.20249 | 34923 ft | 492 kts | 37° |
| 2026-05-07 19:54 | 41.11413 | -6.14171 | 34920 ft | 492 kts | 37° |
| 2026-05-07 19:55 | 41.16505 | -6.08086 | 34915 ft | 492 kts | 37° |
| 2026-05-07 19:55 | 41.21580 | -6.01999 | 34946 ft | 491 kts | 37° |
| 2026-05-07 19:56 | 41.26643 | -5.95910 | 34938 ft | 490 kts | 37° |
| 2026-05-07 19:56 | 41.31698 | -5.89823 | 34938 ft | 490 kts | 37° |
| 2026-05-07 19:57 | 41.36741 | -5.83731 | 34931 ft | 490 kts | 37° |
| 2026-05-07 19:57 | 41.41774 | -5.77624 | 34952 ft | 490 kts | 37° |
| 2026-05-07 19:58 | 41.46782 | -5.71551 | 34935 ft | 489 kts | 37° |
| 2026-05-07 19:58 | 41.51887 | -5.65574 | 34944 ft | 483 kts | 30° |
| 2026-05-07 19:59 | 41.57664 | -5.61341 | 34942 ft | 468 kts | 15° |
| 2026-05-07 19:59 | 41.63676 | -5.57991 | 34938 ft | 468 kts | 16° |
| 2026-05-07 20:00 | 41.69680 | -5.54605 | 34949 ft | 468 kts | 16° |
| 2026-05-07 20:00 | 41.75669 | -5.51201 | 34940 ft | 467 kts | 16° |
| 2026-05-07 20:01 | 41.81661 | -5.47797 | 34939 ft | 467 kts | 15° |
| 2026-05-07 20:01 | 41.87648 | -5.44404 | 34950 ft | 467 kts | 15° |
| 2026-05-07 20:02 | 41.93620 | -5.41004 | 34941 ft | 466 kts | 15° |
| 2026-05-07 20:02 | 41.99553 | -5.37616 | 34933 ft | 466 kts | 15° |
| 2026-05-07 20:03 | 42.05523 | -5.34206 | 34930 ft | 466 kts | 15° |
| 2026-05-07 20:03 | 42.11477 | -5.30796 | 34946 ft | 463 kts | 15° |
| 2026-05-07 20:04 | 42.17403 | -5.27389 | 34938 ft | 462 kts | 15° |
| 2026-05-07 20:04 | 42.23315 | -5.23997 | 34932 ft | 462 kts | 15° |
| 2026-05-07 20:05 | 42.29231 | -5.20604 | 34931 ft | 462 kts | 15° |
| 2026-05-07 20:05 | 42.35139 | -5.17190 | 34933 ft | 461 kts | 15° |
| 2026-05-07 20:06 | 42.41039 | -5.13771 | 34933 ft | 461 kts | 15° |
| 2026-05-07 20:06 | 42.46931 | -5.10354 | 34935 ft | 461 kts | 15° |
| 2026-05-07 20:07 | 42.52824 | -5.06940 | 34946 ft | 461 kts | 16° |
| 2026-05-07 20:07 | 42.58714 | -5.03512 | 34946 ft | 461 kts | 16° |
| 2026-05-07 20:08 | 42.64606 | -5.00067 | 34951 ft | 460 kts | 16° |
| 2026-05-07 20:08 | 42.70445 | -4.96655 | 34956 ft | 460 kts | 16° |
| 2026-05-07 20:09 | 42.76324 | -4.93208 | 34969 ft | 460 kts | 16° |
| 2026-05-07 20:10 | 42.85120 | -4.88041 | 34965 ft | 458 kts | 16° |
| 2026-05-07 20:10 | 42.90980 | -4.84594 | 34966 ft | 459 kts | 16° |
| 2026-05-07 20:11 | 42.96831 | -4.81143 | 34975 ft | 458 kts | 17° |
| 2026-05-07 20:11 | 43.02679 | -4.77680 | 34967 ft | 457 kts | 17° |
| 2026-05-07 20:12 | 43.08516 | -4.74217 | 34953 ft | 457 kts | 16° |
| 2026-05-07 20:12 | 43.14350 | -4.70757 | 34966 ft | 457 kts | 17° |
| 2026-05-07 20:13 | 43.20183 | -4.67287 | 34942 ft | 456 kts | 17° |
| 2026-05-07 20:13 | 43.25970 | -4.63841 | 34934 ft | 456 kts | 17° |
| 2026-05-07 20:14 | 43.31792 | -4.60368 | 34921 ft | 456 kts | 17° |
| 2026-05-07 20:14 | 43.37607 | -4.56885 | 34934 ft | 455 kts | 18° |
| 2026-05-07 20:15 | 43.43405 | -4.53398 | 34917 ft | 455 kts | 18° |
| 2026-05-07 20:15 | 43.49203 | -4.49899 | 34910 ft | 455 kts | 18° |
| 2026-05-07 20:16 | 43.55005 | -4.46408 | 34930 ft | 455 kts | 18° |
| 2026-05-07 20:16 | 43.60804 | -4.42925 | 34923 ft | 455 kts | 18° |
| 2026-05-07 20:17 | 43.66601 | -4.39419 | 34919 ft | 455 kts | 18° |
| 2026-05-07 20:17 | 43.72394 | -4.35893 | 34915 ft | 455 kts | 18° |
| 2026-05-07 20:18 | 43.78195 | -4.32361 | 34919 ft | 455 kts | 18° |
| 2026-05-07 20:18 | 43.83948 | -4.28861 | 34915 ft | 455 kts | 18° |
| 2026-05-07 20:19 | 43.89749 | -4.25322 | 34919 ft | 455 kts | 19° |
| 2026-05-07 20:19 | 43.95551 | -4.21771 | 34939 ft | 456 kts | 19° |
| 2026-05-07 20:20 | 44.01352 | -4.18213 | 34941 ft | 456 kts | 19° |
| 2026-05-07 20:20 | 44.07160 | -4.14646 | 34935 ft | 456 kts | 19° |
| 2026-05-07 20:21 | 44.12967 | -4.11069 | 34934 ft | 456 kts | 19° |
| 2026-05-07 20:21 | 44.18775 | -4.07492 | 34942 ft | 456 kts | 19° |
| 2026-05-07 20:22 | 44.24547 | -4.03929 | 34933 ft | 456 kts | 19° |
| 2026-05-07 20:22 | 44.30358 | -4.00357 | 34931 ft | 455 kts | 16° |
| 2026-05-07 20:23 | 44.36424 | -3.98434 | 34936 ft | 443 kts | 359° |
| 2026-05-07 20:23 | 44.42577 | -3.97903 | 34933 ft | 443 kts | 359° |
| 2026-05-07 20:24 | 44.48737 | -3.97341 | 34936 ft | 444 kts | 359° |
| 2026-05-07 20:24 | 44.54903 | -3.96780 | 34953 ft | 444 kts | 359° |
| 2026-05-07 20:25 | 44.61065 | -3.96228 | 34942 ft | 444 kts | 359° |
| 2026-05-07 20:25 | 44.67237 | -3.95666 | 34942 ft | 444 kts | 359° |
| 2026-05-07 20:26 | 44.73405 | -3.95101 | 34942 ft | 444 kts | 359° |
| 2026-05-07 20:26 | 44.79574 | -3.94540 | 34944 ft | 444 kts | 359° |
| 2026-05-07 20:27 | 44.85746 | -3.93973 | 34941 ft | 444 kts | 359° |
| 2026-05-07 20:27 | 44.91916 | -3.93406 | 34943 ft | 444 kts | 359° |
| 2026-05-07 20:28 | 44.98089 | -3.92841 | 34948 ft | 444 kts | 359° |
| 2026-05-07 20:28 | 45.04221 | -3.92283 | 34948 ft | 444 kts | 359° |
| 2026-05-07 20:29 | 45.10436 | -3.91714 | 34948 ft | 444 kts | 359° |
| 2026-05-07 20:29 | 45.16570 | -3.91147 | 34962 ft | 445 kts | 359° |
| 2026-05-07 20:30 | 45.22757 | -3.90587 | 34956 ft | 445 kts | 359° |
| 2026-05-07 20:30 | 45.28934 | -3.90019 | 34955 ft | 445 kts | 359° |
| 2026-05-07 20:31 | 45.35114 | -3.89436 | 34971 ft | 445 kts | 360° |
| 2026-05-07 20:31 | 45.41295 | -3.88851 | 34966 ft | 445 kts | 360° |
| 2026-05-07 20:32 | 45.47483 | -3.88278 | 34963 ft | 446 kts | 360° |
| 2026-05-07 20:32 | 45.53680 | -3.87713 | 34971 ft | 447 kts | 0° |
| 2026-05-07 20:33 | 45.59893 | -3.87131 | 34979 ft | 447 kts | 0° |
| 2026-05-07 20:33 | 45.66111 | -3.86546 | 34969 ft | 448 kts | 0° |
| 2026-05-07 20:34 | 45.72333 | -3.85958 | 34985 ft | 448 kts | 0° |
| 2026-05-07 20:34 | 45.78558 | -3.85383 | 34971 ft | 448 kts | 0° |
| 2026-05-07 20:35 | 45.84740 | -3.84807 | 34968 ft | 448 kts | 0° |
| 2026-05-07 20:35 | 45.91010 | -3.84207 | 34992 ft | 448 kts | 0° |
| 2026-05-07 20:36 | 45.97197 | -3.83623 | 34985 ft | 449 kts | 0° |
| 2026-05-07 20:36 | 46.03431 | -3.83034 | 34980 ft | 449 kts | 0° |
| 2026-05-07 20:37 | 46.09664 | -3.82441 | 34979 ft | 449 kts | 0° |
| 2026-05-07 20:37 | 46.15903 | -3.81847 | 34981 ft | 449 kts | 0° |
| 2026-05-07 20:38 | 46.21086 | -3.81351 | 34983 ft | 449 kts | 0° |
| 2026-05-07 20:38 | 46.27326 | -3.80754 | 34986 ft | 450 kts | 0° |
| 2026-05-07 20:39 | 46.33577 | -3.80167 | 35000 ft | 450 kts | 0° |
| 2026-05-07 20:39 | 46.39824 | -3.79568 | 34995 ft | 450 kts | 0° |
| 2026-05-07 20:40 | 46.46083 | -3.78950 | 34992 ft | 451 kts | 0° |
| 2026-05-07 20:40 | 46.52342 | -3.78339 | 35004 ft | 451 kts | 0° |
| 2026-05-07 20:41 | 46.58602 | -3.77731 | 35001 ft | 451 kts | 0° |
| 2026-05-07 20:41 | 46.64873 | -3.77125 | 35000 ft | 451 kts | 0° |
| 2026-05-07 20:42 | 46.71144 | -3.76513 | 35000 ft | 451 kts | 0° |
| 2026-05-07 20:42 | 46.77379 | -3.75912 | 35007 ft | 452 kts | 0° |
| 2026-05-07 20:43 | 46.83655 | -3.75312 | 35008 ft | 452 kts | 0° |
| 2026-05-07 20:43 | 46.89966 | -3.74696 | 35010 ft | 452 kts | 0° |
| 2026-05-07 20:44 | 46.96205 | -3.74081 | 35017 ft | 452 kts | 0° |
| 2026-05-07 20:44 | 47.02489 | -3.73452 | 35014 ft | 453 kts | 0° |
| 2026-05-07 20:45 | 47.08773 | -3.72823 | 35012 ft | 453 kts | 0° |
| 2026-05-07 20:45 | 47.15062 | -3.72196 | 35019 ft | 453 kts | 0° |
| 2026-05-07 20:46 | 47.21354 | -3.71583 | 35014 ft | 453 kts | 0° |
| 2026-05-07 20:46 | 47.27653 | -3.70962 | 35011 ft | 453 kts | 0° |
| 2026-05-07 20:47 | 47.33943 | -3.70339 | 35027 ft | 453 kts | 0° |
| 2026-05-07 20:47 | 47.40246 | -3.69707 | 35016 ft | 454 kts | 0° |
| 2026-05-07 20:48 | 47.46548 | -3.69079 | 35009 ft | 454 kts | 0° |
| 2026-05-07 20:48 | 47.52860 | -3.68452 | 35007 ft | 454 kts | 0° |
| 2026-05-07 20:49 | 47.59179 | -3.67819 | 35006 ft | 455 kts | 0° |
| 2026-05-07 20:49 | 47.65501 | -3.67182 | 34999 ft | 456 kts | 0° |
| 2026-05-07 20:50 | 47.71832 | -3.66539 | 34999 ft | 456 kts | 0° |
| 2026-05-07 20:50 | 47.78126 | -3.65896 | 35005 ft | 457 kts | 0° |
| 2026-05-07 20:51 | 47.84469 | -3.65258 | 35001 ft | 457 kts | 0° |
| 2026-05-07 20:51 | 47.90819 | -3.64611 | 35000 ft | 457 kts | 0° |
| 2026-05-07 20:52 | 47.97177 | -3.63960 | 35006 ft | 458 kts | 0° |
| 2026-05-07 20:52 | 48.03542 | -3.63306 | 34999 ft | 459 kts | 0° |
| 2026-05-07 20:53 | 48.09922 | -3.62655 | 34997 ft | 459 kts | 0° |
| 2026-05-07 20:53 | 48.16307 | -3.62001 | 34995 ft | 460 kts | 0° |
| 2026-05-07 20:54 | 48.22705 | -3.61334 | 35010 ft | 461 kts | 0° |
| 2026-05-07 20:54 | 48.29081 | -3.60143 | 35011 ft | 466 kts | 13° |
| 2026-05-07 20:55 | 48.34992 | -3.56043 | 35006 ft | 473 kts | 33° |
| 2026-05-07 20:55 | 48.39761 | -3.49187 | 35021 ft | 477 kts | 47° |
| 2026-05-07 20:56 | 48.44143 | -3.41677 | 35006 ft | 478 kts | 47° |
| 2026-05-07 20:56 | 48.48506 | -3.34206 | 35007 ft | 478 kts | 47° |
| 2026-05-07 20:57 | 48.52888 | -3.26676 | 35014 ft | 478 kts | 48° |
| 2026-05-07 20:57 | 48.57267 | -3.19126 | 35016 ft | 478 kts | 48° |
| 2026-05-07 20:58 | 48.61646 | -3.11557 | 35030 ft | 478 kts | 48° |
| 2026-05-07 20:58 | 48.66010 | -3.03973 | 35016 ft | 478 kts | 48° |
| 2026-05-07 20:59 | 48.70057 | -2.96020 | 35017 ft | 478 kts | 60° |
| 2026-05-07 20:59 | 48.72526 | -2.86723 | 35019 ft | 476 kts | 77° |
| 2026-05-07 21:00 | 48.74171 | -2.77013 | 35005 ft | 476 kts | 76° |
| 2026-05-07 21:00 | 48.75835 | -2.67302 | 35006 ft | 476 kts | 75° |
| 2026-05-07 21:01 | 48.78559 | -2.58183 | 35000 ft | 477 kts | 56° |
| 2026-05-07 21:01 | 48.82992 | -2.50769 | 35007 ft | 475 kts | 37° |
| 2026-05-07 21:02 | 48.88237 | -2.44647 | 35011 ft | 475 kts | 37° |
| 2026-05-07 21:02 | 48.93475 | -2.38496 | 35016 ft | 476 kts | 37° |
| 2026-05-07 21:03 | 48.98710 | -2.32335 | 35015 ft | 476 kts | 37° |
| 2026-05-07 21:03 | 49.03948 | -2.26167 | 35021 ft | 476 kts | 37° |
| 2026-05-07 21:04 | 49.09146 | -2.20028 | 35019 ft | 476 kts | 37° |
| 2026-05-07 21:04 | 49.14369 | -2.13829 | 35026 ft | 475 kts | 37° |
| 2026-05-07 21:05 | 49.19586 | -2.07623 | 35035 ft | 475 kts | 37° |
| 2026-05-07 21:05 | 49.25081 | -2.02091 | 35033 ft | 473 kts | 28° |
| 2026-05-07 21:06 | 49.30849 | -1.97232 | 35031 ft | 473 kts | 28° |
| 2026-05-07 21:06 | 49.36613 | -1.92346 | 35037 ft | 473 kts | 28° |
| 2026-05-07 21:07 | 49.42372 | -1.87425 | 35044 ft | 473 kts | 28° |
| 2026-05-07 21:07 | 49.48127 | -1.82508 | 35045 ft | 474 kts | 28° |
| 2026-05-07 21:08 | 49.53854 | -1.77614 | 35050 ft | 474 kts | 28° |
| 2026-05-07 21:08 | 49.59647 | -1.72763 | 35047 ft | 473 kts | 23° |
| 2026-05-07 21:09 | 49.65807 | -1.69222 | 35048 ft | 473 kts | 18° |
| 2026-05-07 21:09 | 49.72002 | -1.65809 | 35046 ft | 473 kts | 18° |
| 2026-05-07 21:10 | 49.78195 | -1.62370 | 35052 ft | 473 kts | 19° |
| 2026-05-07 21:10 | 49.84394 | -1.58915 | 35047 ft | 474 kts | 18° |
| 2026-05-07 21:11 | 49.90601 | -1.55468 | 35051 ft | 474 kts | 18° |
| 2026-05-07 21:11 | 49.99924 | -1.50256 | 34734 ft | 475 kts | 18° |
| 2026-05-07 21:12 | 50.03047 | -1.48575 | 34422 ft | 474 kts | 17° |
| 2026-05-07 21:12 | 50.06203 | -1.46988 | 33357 ft | 481 kts | 16° |
| 2026-05-07 21:12 | 50.09417 | -1.45456 | 32458 ft | 483 kts | 15° |
| 2026-05-07 21:12 | 50.12645 | -1.43948 | 31433 ft | 486 kts | 15° |
| 2026-05-07 21:13 | 50.15897 | -1.42426 | 30491 ft | 488 kts | 15° |
| 2026-05-07 21:13 | 50.19157 | -1.40876 | 29488 ft | 490 kts | 16° |
| 2026-05-07 21:13 | 50.22423 | -1.39293 | 28234 ft | 494 kts | 16° |
| 2026-05-07 21:13 | 50.25696 | -1.37676 | 27068 ft | 495 kts | 16° |
| 2026-05-07 21:14 | 50.28979 | -1.36043 | 25966 ft | 495 kts | 17° |
| 2026-05-07 21:14 | 50.32279 | -1.34399 | 24719 ft | 500 kts | 17° |
| 2026-05-07 21:14 | 50.35594 | -1.32754 | 23710 ft | 499 kts | 17° |
| 2026-05-07 21:14 | 50.38880 | -1.31125 | 22894 ft | 490 kts | 17° |
| 2026-05-07 21:15 | 50.42107 | -1.29524 | 22059 ft | 484 kts | 17° |
| 2026-05-07 21:15 | 50.45300 | -1.27938 | 21239 ft | 478 kts | 17° |
| 2026-05-07 21:15 | 50.48410 | -1.26205 | 20448 ft | 473 kts | 23° |
| 2026-05-07 21:15 | 50.51260 | -1.23823 | 19701 ft | 468 kts | 32° |
| 2026-05-07 21:16 | 50.53850 | -1.20777 | 18962 ft | 463 kts | 40° |
| 2026-05-07 21:16 | 50.56312 | -1.17538 | 18233 ft | 459 kts | 40° |
| 2026-05-07 21:16 | 50.58748 | -1.14337 | 17435 ft | 454 kts | 40° |
| 2026-05-07 21:16 | 50.61156 | -1.11170 | 16692 ft | 449 kts | 40° |
| 2026-05-07 21:17 | 50.63544 | -1.08022 | 15968 ft | 445 kts | 40° |
| 2026-05-07 21:17 | 50.65848 | -1.04816 | 15277 ft | 440 kts | 46° |
| 2026-05-07 21:17 | 50.67798 | -1.01208 | 15046 ft | 424 kts | 51° |
| 2026-05-07 21:17 | 50.69620 | -0.97666 | 14927 ft | 407 kts | 51° |
| 2026-05-07 21:18 | 50.71379 | -0.94278 | 14793 ft | 392 kts | 51° |
| 2026-05-07 21:18 | 50.73081 | -0.91018 | 14663 ft | 378 kts | 51° |
| 2026-05-07 21:18 | 50.74723 | -0.87870 | 14541 ft | 365 kts | 51° |
| 2026-05-07 21:18 | 50.76305 | -0.84826 | 14417 ft | 353 kts | 51° |
| 2026-05-07 21:19 | 50.77833 | -0.81871 | 14299 ft | 342 kts | 51° |
| 2026-05-07 21:19 | 50.79311 | -0.79006 | 14173 ft | 331 kts | 51° |
| 2026-05-07 21:19 | 50.80602 | -0.76051 | 13985 ft | 324 kts | 64° |
| 2026-05-07 21:19 | 50.81415 | -0.72776 | 13666 ft | 319 kts | 77° |
| 2026-05-07 21:20 | 50.81839 | -0.69369 | 13083 ft | 314 kts | 81° |
| 2026-05-07 21:20 | 50.82231 | -0.65974 | 12406 ft | 313 kts | 81° |
| 2026-05-07 21:20 | 50.82621 | -0.62597 | 11760 ft | 311 kts | 81° |
| 2026-05-07 21:20 | 50.83005 | -0.59249 | 11176 ft | 307 kts | 80° |
| 2026-05-07 21:21 | 50.83387 | -0.55936 | 10775 ft | 306 kts | 80° |
| 2026-05-07 21:21 | 50.83772 | -0.52624 | 10388 ft | 307 kts | 80° |
| 2026-05-07 21:21 | 50.84158 | -0.49307 | 9996 ft | 307 kts | 79° |
| 2026-05-07 21:21 | 50.84540 | -0.45992 | 9623 ft | 305 kts | 80° |
| 2026-05-07 21:22 | 50.84918 | -0.42707 | 9286 ft | 302 kts | 79° |
| 2026-05-07 21:22 | 50.85293 | -0.39447 | 8925 ft | 299 kts | 79° |
| 2026-05-07 21:22 | 50.85663 | -0.36231 | 8555 ft | 295 kts | 80° |
| 2026-05-07 21:22 | 50.86023 | -0.33067 | 8070 ft | 289 kts | 79° |
| 2026-05-07 21:23 | 50.86378 | -0.29940 | 7701 ft | 288 kts | 79° |
| 2026-05-07 21:23 | 50.87069 | -0.27024 | 7399 ft | 282 kts | 54° |
| 2026-05-07 21:23 | 50.88476 | -0.24958 | 7123 ft | 274 kts | 26° |
| 2026-05-07 21:23 | 50.90283 | -0.24178 | 6810 ft | 270 kts | 360° |
| 2026-05-07 21:24 | 50.92088 | -0.24821 | 6420 ft | 268 kts | 332° |
| 2026-05-07 21:24 | 50.93464 | -0.26710 | 5982 ft | 268 kts | 303° |
| 2026-05-07 21:24 | 50.94298 | -0.29345 | 5510 ft | 269 kts | 292° |
| 2026-05-07 21:24 | 50.95001 | -0.32102 | 5060 ft | 270 kts | 291° |
| 2026-05-07 21:25 | 50.95690 | -0.34870 | 4624 ft | 270 kts | 291° |
| 2026-05-07 21:25 | 50.96376 | -0.37633 | 4203 ft | 269 kts | 291° |
| 2026-05-07 21:25 | 50.97064 | -0.40386 | 3783 ft | 268 kts | 294° |
| 2026-05-07 21:25 | 50.98144 | -0.42743 | 3375 ft | 265 kts | 322° |
| 2026-05-07 21:26 | 50.99179 | -0.43718 | 3213 ft | 258 kts | 337° |
| 2026-05-07 21:26 | 51.00798 | -0.44751 | 3088 ft | 243 kts | 341° |
| 2026-05-07 21:26 | 51.02318 | -0.45655 | 3000 ft | 223 kts | 341° |
| 2026-05-07 21:26 | 51.03705 | -0.46481 | 3023 ft | 204 kts | 341° |
| 2026-05-07 21:27 | 51.05004 | -0.47254 | 3035 ft | 197 kts | 341° |
| 2026-05-07 21:27 | 51.06285 | -0.47954 | 3031 ft | 193 kts | 352° |
| 2026-05-07 21:27 | 51.07563 | -0.47635 | 3026 ft | 186 kts | 31° |
| 2026-05-07 21:27 | 51.08631 | -0.46495 | 3031 ft | 185 kts | 40° |
| 2026-05-07 21:28 | 51.09644 | -0.45240 | 3025 ft | 184 kts | 41° |
| 2026-05-07 21:28 | 51.10647 | -0.43969 | 3028 ft | 184 kts | 41° |
| 2026-05-07 21:28 | 51.11457 | -0.42431 | 2950 ft | 181 kts | 65° |
| 2026-05-07 21:28 | 51.11824 | -0.40539 | 2776 ft | 178 kts | 79° |
| 2026-05-07 21:29 | 51.12084 | -0.38662 | 2548 ft | 168 kts | 79° |
| 2026-05-07 21:29 | 51.12329 | -0.36912 | 2343 ft | 154 kts | 79° |
| 2026-05-07 21:29 | 51.12552 | -0.35318 | 2137 ft | 143 kts | 80° |
| 2026-05-07 21:29 | 51.12763 | -0.33798 | 1946 ft | 139 kts | 80° |
| 2026-05-07 21:30 | 51.12971 | -0.32307 | 1758 ft | 137 kts | 80° |
| 2026-05-07 21:30 | 51.13177 | -0.30826 | 1566 ft | 137 kts | 80° |
| 2026-05-07 21:30 | 51.13384 | -0.29345 | 1377 ft | 137 kts | 80° |
| 2026-05-07 21:30 | 51.13587 | -0.27868 | 1176 ft | 137 kts | 80° |
| 2026-05-07 21:31 | 51.13791 | -0.26390 | 975 ft | 137 kts | 79° |
| 2026-05-07 21:31 | 51.14004 | -0.24911 | 787 ft | 137 kts | 78° |
| 2026-05-07 21:31 | 51.14207 | -0.23428 | 622 ft | 137 kts | 79° |
| 2026-05-07 21:31 | 51.14418 | -0.21950 | 403 ft | 136 kts | 78° |
| 2026-05-07 21:32 | 51.14620 | -0.20479 | 229 ft | 136 kts | 78° |
| 2026-05-07 21:32 | 51.14785 | -0.19255 | 214 ft | 75 kts | 77° |
| 2026-05-07 21:32 | 51.14857 | -0.18733 | 214 ft | 36 kts | 76° |
| 2026-05-07 21:32 | 51.14964 | -0.18473 | 209 ft | 25 kts | 50° |
| 2026-05-07 21:33 | 51.15046 | -0.18309 | 210 ft | 18 kts | 53° |
| 2026-05-07 21:33 | 51.15095 | -0.18212 | 205 ft | 7 kts | 50° |
| 2026-05-07 21:33 | 51.15133 | -0.18190 | 208 ft | 12 kts | 344° |
| 2026-05-07 21:33 | 51.15202 | -0.18216 | 207 ft | 5 kts | 348° |
| 2026-05-07 21:34 | 51.15240 | -0.18229 | 215 ft | 10 kts | 348° |
| 2026-05-07 21:34 | 51.15315 | -0.18254 | 215 ft | 10 kts | 348° |
| 2026-05-07 21:34 | 51.15381 | -0.18276 | 216 ft | 9 kts | 348° |
| 2026-05-07 21:34 | 51.15441 | -0.18299 | 215 ft | 12 kts | 348° |
| 2026-05-07 21:35 | 51.15532 | -0.18319 | 211 ft | 12 kts | 12° |
| 2026-05-07 21:35 | 51.15599 | -0.18257 | 210 ft | 10 kts | 32° |
| 2026-05-07 21:35 | 51.15660 | -0.18220 | 213 ft | 8 kts | 45° |
| 2026-05-07 21:35 | 51.15681 | -0.18095 | 208 ft | 15 kts | 78° |
| 2026-05-07 21:36 | 51.15705 | -0.17920 | 210 ft | 17 kts | 77° |
| 2026-05-07 21:36 | 51.15731 | -0.17735 | 205 ft | 14 kts | 77° |
| 2026-05-07 21:36 | 51.15751 | -0.17588 | 214 ft | 12 kts | 78° |
| 2026-05-07 21:36 | 51.15764 | -0.17489 | 212 ft | 8 kts | 78° |
| 2026-05-07 21:37 | 51.15780 | -0.17416 | 209 ft | 6 kts | 47° |
| 2026-05-07 21:37 | 51.15808 | -0.17416 | 205 ft | 4 kts | 356° |
| 2026-05-07 21:37 | 51.15828 | -0.17425 | 205 ft | 3 kts | 343° |
| 2026-05-07 21:37 | 51.15843 | -0.17431 | 211 ft | 2 kts | 347° |
| 2026-05-07 21:38 | 51.15851 | -0.17434 | 213 ft | 1 kts | 347° |
| 2026-05-07 21:38 | 51.15854 | -0.17435 | 212 ft | 0 kts | 347° |